KGNV/GNV METAR and TAF weather

Enter ICAO airport designator
Station Type Date Time Source
KGNV METAR 2022/06/27 18:53 UTC NOAA

KGNV 271853Z 08007KT 10SM FEW055 SCT100 27/22 A3007 RMK AO2 SLP181 T02670222


Station Type Date Time Source
KGNV Decoded METAR 2022/06/27 18:53 UTC NOAA

GAINESVILLE REGIONAL AIRPORT , FL, United States (KGNV) 29-42N 082-17W 45M
Jun 27, 2022 - 02:53 PM EDT / 2022.06.27 1853 UTC
Wind: from the E (080 degrees) at 8 MPH (7 KT):0
Visibility: 10 mile(s):0
Sky conditions: partly cloudy
Temperature: 80.1 F (26.7 C)
Dew Point: 72.0 F (22.2 C)
Relative Humidity: 76%
Pressure (altimeter): 30.07 in. Hg (1018 hPa)
ob: KGNV 271853Z 08007KT 10SM FEW055 SCT100 27/22 A3007 RMK AO2 SLP181 T02670222
cycle: 19

Station Type Date Time Source
KGNV TAF 2022/06/27 19:46 UTC NOAA

TAF
AMD KGNV 271843Z 2719/2818 06010KT P6SM SHRA VCTS SCT035 BKN050CB BKN250
TEMPO 2719/2722 VRB15G25KT 1SM +TSRA BR BKN020CB
FM280200 10003KT P6SM VCSH SCT050 BKN120 BKN250
FM281300 13006KT P6SM VCSH SCT025 SCT250

Example: see airport list